Time;durP1;ratioP1;P1;durP2;ratioP2;P2;SDS_P1;SDS_P2;PMS_P1;PMS_P2;Temp;Humidity;BMP_temperature;BMP_pressure;BME280_temperature;BME280_humidity;BME280_pressure;Samples;Min_cycle;Max_cycle;Signal;HPM_P1;HPM_P2
2022/01/03 00:00:53;;;;;;;8.63;1.52;;;8.90;99.90;;;;;;5018999;28;20041;-73
2022/01/03 00:03:19;;;;;;;11.23;1.80;;;9.00;99.90;;;;;;5019187;28;20102;-73
2022/01/03 00:05:45;;;;;;;11.85;2.05;;;8.90;99.90;;;;;;5035725;28;20052;-73
2022/01/03 00:08:10;;;;;;;18.13;3.28;;;9.00;99.90;;;;;;5018857;28;20425;-72
2022/01/03 00:10:36;;;;;;;11.00;2.38;;;9.00;99.90;;;;;;5018979;28;20120;-73
2022/01/03 00:13:04;;;;;;;9.90;2.10;;;9.10;99.90;;;;;;5018843;28;20076;-73
2022/01/03 00:15:30;;;;;;;17.05;2.58;;;9.10;99.90;;;;;;5035395;28;20037;-73
2022/01/03 00:17:55;;;;;;;10.10;2.35;;;9.10;99.90;;;;;;5035327;28;20082;-72
2022/01/03 00:20:22;;;;;;;13.02;2.55;;;9.10;99.90;;;;;;5035557;28;20083;-73
2022/01/03 00:23:03;;;;;;;15.25;2.45;;;9.20;99.90;;;;;;5035204;28;20056;-73
2022/01/03 00:25:29;;;;;;;13.05;2.38;;;9.20;99.90;;;;;;5035296;28;20079;-73
2022/01/03 00:28:01;;;;;;;13.43;2.20;;;9.20;99.90;;;;;;5019312;28;20053;-73
2022/01/03 00:30:27;;;;;;;14.80;2.20;;;9.20;99.90;;;;;;5035043;28;20049;-73
2022/01/03 00:32:52;;;;;;;19.20;2.97;;;9.20;99.90;;;;;;5035201;28;20047;-73
2022/01/03 00:35:20;;;;;;;12.80;2.97;;;9.30;99.90;;;;;;5018695;28;20037;-73
2022/01/03 00:37:46;;;;;;;15.82;2.92;;;9.30;99.90;;;;;;5035149;28;20125;-73
2022/01/03 00:40:14;;;;;;;17.30;2.78;;;9.40;99.90;;;;;;5035035;28;20037;-73
2022/01/03 00:42:40;;;;;;;17.20;2.92;;;9.30;99.90;;;;;;5036489;28;20115;-73
2022/01/03 00:45:07;;;;;;;23.38;4.35;;;9.40;99.90;;;;;;5039408;28;20077;-73
2022/01/03 00:47:33;;;;;;;21.08;3.95;;;9.30;99.90;;;;;;5022682;28;20047;-73
2022/01/03 00:50:04;;;;;;;25.48;3.53;;;9.40;99.90;;;;;;5022441;28;20056;-73
2022/01/03 00:52:30;;;;;;;25.95;3.85;;;9.40;99.90;;;;;;5039353;28;20037;-73
2022/01/03 00:54:55;;;;;;;24.77;3.67;;;9.40;99.90;;;;;;5039002;28;20475;-73
2022/01/03 00:57:46;;;;;;;22.88;3.45;;;9.40;99.90;;;;;;5039005;28;20037;-73
2022/01/03 01:00:13;;;;;;;23.67;3.67;;;9.40;99.90;;;;;;5022274;28;20043;-73
2022/01/03 01:03:12;;;;;;;21.60;3.53;;;9.40;99.90;;;;;;5038850;28;20052;-72
2022/01/03 01:05:43;;;;;;;21.63;3.47;;;9.40;99.90;;;;;;5035569;28;20135;-73
2022/01/03 01:08:10;;;;;;;27.13;4.82;;;9.40;99.90;;;;;;5038869;28;20045;-72
2022/01/03 01:10:39;;;;;;;23.08;4.18;;;9.40;99.90;;;;;;5038674;28;20041;-73
2022/01/03 01:13:08;;;;;;;21.08;3.65;;;9.40;99.90;;;;;;5038657;28;20037;-73
2022/01/03 01:15:35;;;;;;;19.67;3.28;;;9.40;99.90;;;;;;5038638;28;20408;-73
2022/01/03 01:18:03;;;;;;;25.58;4.07;;;9.40;99.90;;;;;;5038887;28;20108;-73
2022/01/03 01:20:30;;;;;;;22.13;4.28;;;9.40;99.90;;;;;;5038488;28;20049;-73
2022/01/03 01:22:56;;;;;;;27.02;4.78;;;9.40;99.90;;;;;;5038498;28;20443;-73
2022/01/03 01:27:49;;;;;;;21.42;3.55;;;9.40;99.90;;;;;;5038397;28;20187;-73
2022/01/03 01:30:20;;;;;;;26.15;3.70;;;9.30;99.90;;;;;;5038228;28;20052;-73
2022/01/03 01:33:05;;;;;;;22.02;4.05;;;9.30;99.90;;;;;;5038544;28;20409;-73
2022/01/03 01:35:45;;;;;;;22.13;3.75;;;9.30;99.90;;;;;;5038319;28;20033;-73
2022/01/03 01:38:15;;;;;;;26.63;4.15;;;9.40;99.90;;;;;;5038454;28;20044;-72
2022/01/03 01:40:53;;;;;;;20.52;4.10;;;9.30;99.90;;;;;;5038112;28;20513;-73
2022/01/03 01:43:32;;;;;;;17.83;3.22;;;9.30;99.90;;;;;;5021628;28;20130;-73
2022/01/03 01:46:00;;;;;;;23.95;4.10;;;9.40;99.90;;;;;;5038434;28;20117;-73
2022/01/03 01:48:26;;;;;;;31.63;4.43;;;9.40;99.90;;;;;;5038531;28;20045;-73
2022/01/03 01:50:53;;;;;;;28.38;4.20;;;9.40;99.90;;;;;;5037948;28;20060;-73
2022/01/03 01:53:24;;;;;;;28.05;5.00;;;9.40;99.90;;;;;;5037832;28;20048;-73
2022/01/03 01:55:52;;;;;;;28.83;4.47;;;9.40;99.90;;;;;;5037904;28;20123;-73
2022/01/03 01:58:28;;;;;;;28.48;4.70;;;9.40;99.90;;;;;;5037804;28;20047;-73
2022/01/03 02:01:01;;;;;;;28.35;4.22;;;9.40;99.90;;;;;;5037784;28;20480;-73
2022/01/03 02:03:37;;;;;;;24.80;3.75;;;9.40;99.90;;;;;;5037735;28;20037;-73
2022/01/03 02:06:27;;;;;;;25.42;4.18;;;9.40;99.90;;;;;;5037759;28;20041;-73
2022/01/03 02:09:07;;;;;;;21.80;4.88;;;9.40;99.90;;;;;;5051201;22;20098;-73
2022/01/03 02:11:48;;;;;;;21.67;3.72;;;9.40;99.90;;;;;;5057495;28;20044;-74
2022/01/03 02:14:14;;;;;;;29.75;4.05;;;9.30;99.90;;;;;;5057526;28;20036;-74
2022/01/03 02:16:40;;;;;;;18.88;3.50;;;9.30;99.90;;;;;;5057446;28;20043;-73
2022/01/03 02:19:06;;;;;;;23.55;4.22;;;9.40;99.90;;;;;;5057276;28;20503;-73
2022/01/03 02:21:32;;;;;;;24.95;3.83;;;9.40;99.90;;;;;;5040818;28;20044;-73
2022/01/03 02:23:58;;;;;;;21.73;4.30;;;9.40;99.90;;;;;;5057273;28;20479;-73
2022/01/03 02:26:24;;;;;;;21.05;4.38;;;9.40;99.90;;;;;;5040681;28;20033;-74
2022/01/03 02:28:50;;;;;;;22.90;3.92;;;9.30;99.90;;;;;;5057176;28;20507;-73
2022/01/03 02:31:17;;;;;;;23.48;4.05;;;9.30;99.90;;;;;;5057109;28;20076;-74
2022/01/03 02:33:44;;;;;;;22.48;3.88;;;9.30;99.90;;;;;;5057457;28;20045;-74
2022/01/03 02:36:10;;;;;;;24.73;4.20;;;9.30;99.90;;;;;;5057078;28;20040;-74
2022/01/03 02:38:37;;;;;;;17.35;3.13;;;9.30;99.90;;;;;;5040333;28;20033;-74
2022/01/03 02:41:02;;;;;;;23.27;4.00;;;9.30;99.90;;;;;;5056963;28;20408;-73
2022/01/03 02:43:28;;;;;;;19.42;3.85;;;9.30;99.90;;;;;;5056970;28;20032;-73
2022/01/03 02:45:53;;;;;;;24.23;4.15;;;9.20;99.90;;;;;;5056978;28;20119;-73
2022/01/03 02:48:22;;;;;;;25.23;4.32;;;9.20;99.90;;;;;;5056697;28;20139;-73
2022/01/03 02:50:48;;;;;;;26.55;4.25;;;9.20;99.90;;;;;;5040222;28;20041;-73
2022/01/03 02:53:15;;;;;;;25.05;4.57;;;9.20;99.90;;;;;;5056803;28;20063;-73
2022/01/03 02:55:41;;;;;;;29.83;4.15;;;9.20;99.90;;;;;;5040396;28;20131;-74
2022/01/03 02:58:07;;;;;;;28.52;4.00;;;9.10;99.90;;;;;;5056660;28;20119;-74
2022/01/03 03:00:36;;;;;;;28.45;4.80;;;9.20;99.90;;;;;;5056553;28;20123;-73
2022/01/03 03:03:03;;;;;;;29.20;4.60;;;9.20;99.90;;;;;;5056833;28;20040;-74
2022/01/03 03:05:29;;;;;;;24.73;4.55;;;9.10;99.90;;;;;;5055947;28;20076;-74
2022/01/03 03:07:55;;;;;;;25.15;5.20;;;9.10;99.90;;;;;;5056738;28;20477;-74
2022/01/03 03:10:24;;;;;;;19.45;4.03;;;9.10;99.90;;;;;;5056449;28;20505;-73
2022/01/03 03:12:50;;;;;;;23.98;4.05;;;9.10;99.90;;;;;;5056389;28;20041;-74
2022/01/03 03:15:16;;;;;;;27.48;4.40;;;9.10;99.90;;;;;;5039813;28;20476;-73
2022/01/03 03:17:43;;;;;;;26.23;4.93;;;9.00;99.90;;;;;;5056212;28;20041;-74
2022/01/03 03:20:16;;;;;;;28.83;4.13;;;9.00;99.90;;;;;;5056164;28;20566;-73
2022/01/03 03:22:42;;;;;;;27.23;3.88;;;9.00;99.90;;;;;;5056141;28;20508;-74
2022/01/03 03:25:20;;;;;;;27.20;4.35;;;9.00;99.90;;;;;;5056165;28;20036;-74
2022/01/03 03:27:48;;;;;;;24.75;3.80;;;9.00;99.90;;;;;;5039650;28;20040;-74
2022/01/03 03:30:21;;;;;;;31.35;4.90;;;8.90;99.90;;;;;;5039234;28;20036;-73
2022/01/03 03:32:49;;;;;;;31.45;4.50;;;8.90;99.90;;;;;;5056039;28;20039;-74
2022/01/03 03:35:15;;;;;;;28.35;4.53;;;8.90;99.90;;;;;;5039205;28;20038;-74
2022/01/03 03:37:41;;;;;;;33.25;5.30;;;9.00;99.90;;;;;;5055917;28;20123;-74
2022/01/03 03:40:07;;;;;;;28.65;4.80;;;9.00;99.90;;;;;;5055841;28;20080;-74
2022/01/03 03:42:33;;;;;;;26.23;4.45;;;8.90;99.90;;;;;;5055844;28;20040;-74
2022/01/03 03:44:59;;;;;;;28.80;5.03;;;9.00;99.90;;;;;;5055745;28;20062;-74
2022/01/03 03:47:25;;;;;;;32.70;5.00;;;9.00;99.90;;;;;;5055971;28;20102;-74
2022/01/03 03:49:50;;;;;;;23.60;4.32;;;9.00;99.90;;;;;;5055614;28;20043;-73
2022/01/03 03:52:16;;;;;;;29.42;4.53;;;9.00;99.90;;;;;;5039369;28;20117;-73
2022/01/03 03:54:41;;;;;;;34.53;5.13;;;9.00;99.90;;;;;;5055881;28;20043;-73
2022/01/03 03:57:08;;;;;;;30.02;4.70;;;9.00;99.90;;;;;;5039236;28;20511;-73
2022/01/03 03:59:35;;;;;;;27.98;4.68;;;9.00;99.90;;;;;;5055711;28;20059;-73
2022/01/03 04:02:01;;;;;;;27.58;5.10;;;9.00;99.90;;;;;;5038932;28;20094;-73
2022/01/03 04:04:27;;;;;;;25.35;4.55;;;9.00;99.90;;;;;;5055695;28;20032;-74
2022/01/03 04:06:53;;;;;;;31.55;5.80;;;9.00;99.90;;;;;;5055444;28;20055;-74
2022/01/03 04:09:19;;;;;;;26.65;5.10;;;9.00;99.90;;;;;;5055206;28;20036;-73
2022/01/03 04:11:45;;;;;;;27.75;4.47;;;9.10;99.90;;;;;;5055263;28;20044;-74
2022/01/03 04:14:10;;;;;;;33.15;5.10;;;9.00;99.90;;;;;;5056188;28;20037;-74
2022/01/03 04:16:37;;;;;;;26.83;4.50;;;9.10;99.90;;;;;;5054681;28;20039;-74
2022/01/03 04:19:04;;;;;;;36.00;5.50;;;9.10;99.90;;;;;;5054858;28;20078;-73
2022/01/03 04:21:30;;;;;;;29.80;4.65;;;9.10;99.90;;;;;;5055248;28;20044;-73
2022/01/03 04:23:55;;;;;;;22.35;4.15;;;9.10;99.90;;;;;;5055190;28;20518;-73
2022/01/03 04:26:21;;;;;;;31.30;5.13;;;9.10;99.90;;;;;;5038800;28;20048;-74
2022/01/03 04:28:47;;;;;;;28.70;4.95;;;9.10;99.90;;;;;;5055155;28;20523;-74
2022/01/03 04:31:14;;;;;;;27.75;4.65;;;9.10;99.90;;;;;;5038424;28;20040;-73
2022/01/03 04:33:39;;;;;;;28.17;4.97;;;9.10;99.90;;;;;;5055110;28;20098;-74
2022/01/03 04:36:06;;;;;;;29.00;5.18;;;9.20;99.90;;;;;;5038813;28;20068;-73
2022/01/03 04:38:32;;;;;;;34.20;5.35;;;9.20;99.90;;;;;;5054920;28;20041;-74
2022/01/03 04:40:59;;;;;;;32.15;4.88;;;9.20;99.90;;;;;;5055013;28;20051;-73
2022/01/03 04:43:25;;;;;;;27.95;4.63;;;9.20;99.90;;;;;;5038403;28;20037;-73
2022/01/03 04:45:51;;;;;;;33.13;5.03;;;9.20;99.90;;;;;;5055269;28;20098;-74
2022/01/03 04:48:17;;;;;;;28.02;4.85;;;9.20;99.90;;;;;;5038509;28;20431;-73
2022/01/03 04:50:43;;;;;;;32.60;5.70;;;9.20;99.90;;;;;;5054841;28;20041;-74
2022/01/03 04:53:08;;;;;;;29.35;5.85;;;9.30;99.90;;;;;;5055198;28;20031;-74
2022/01/03 04:55:34;;;;;;;32.58;5.45;;;9.20;99.90;;;;;;5038583;28;20450;-74
2022/01/03 04:57:59;;;;;;;33.42;5.30;;;9.20;99.90;;;;;;5055135;28;20115;-74
2022/01/03 05:00:25;;;;;;;31.90;5.15;;;9.20;99.90;;;;;;5055030;28;20389;-73
2022/01/03 05:02:50;;;;;;;34.25;5.63;;;9.20;99.90;;;;;;5054904;28;20051;-74
2022/01/03 05:05:16;;;;;;;28.90;4.88;;;9.20;99.90;;;;;;5054835;28;20041;-74
2022/01/03 05:07:42;;;;;;;31.48;5.80;;;9.20;99.90;;;;;;5055059;28;20139;-74
2022/01/03 05:10:08;;;;;;;34.70;6.43;;;9.20;99.90;;;;;;5054784;28;20527;-73
2022/01/03 05:12:33;;;;;;;29.00;5.32;;;9.20;99.90;;;;;;5054790;28;20120;-73
2022/01/03 05:14:59;;;;;;;30.02;5.50;;;9.20;99.90;;;;;;5055009;28;20071;-74
2022/01/03 05:17:25;;;;;;;30.48;5.95;;;9.20;99.90;;;;;;5054658;28;20459;-74
2022/01/03 05:19:51;;;;;;;30.60;5.50;;;9.20;99.90;;;;;;5054581;28;20190;-73
2022/01/03 05:22:16;;;;;;;31.35;4.97;;;9.20;99.90;;;;;;5054607;28;20040;-73
2022/01/03 05:24:42;;;;;;;41.13;5.90;;;9.20;99.90;;;;;;5054609;28;20063;-74
2022/01/03 05:27:08;;;;;;;33.00;5.15;;;9.20;99.90;;;;;;5038038;28;20039;-73
2022/01/03 05:29:34;;;;;;;36.45;5.43;;;9.20;99.90;;;;;;5057181;28;20036;-73
2022/01/03 05:32:00;;;;;;;36.13;5.65;;;9.20;99.90;;;;;;5058193;28;20072;-73
2022/01/03 05:34:26;;;;;;;30.35;5.07;;;9.20;99.90;;;;;;5058227;28;20044;-74
2022/01/03 05:36:51;;;;;;;30.30;5.00;;;9.20;99.90;;;;;;5058475;28;20040;-74
2022/01/03 05:39:17;;;;;;;31.15;5.50;;;9.20;99.90;;;;;;5058431;28;20119;-74
2022/01/03 05:41:42;;;;;;;30.45;5.80;;;9.10;99.90;;;;;;5058375;28;20431;-73
2022/01/03 05:44:08;;;;;;;32.78;5.20;;;9.10;99.90;;;;;;5058096;28;20500;-74
2022/01/03 05:46:34;;;;;;;30.48;5.07;;;9.10;99.90;;;;;;5057988;28;20496;-74
2022/01/03 05:49:00;;;;;;;30.88;5.15;;;9.10;99.90;;;;;;5057956;28;20036;-73
2022/01/03 05:51:26;;;;;;;32.75;6.40;;;9.10;99.90;;;;;;5057885;28;20044;-74
2022/01/03 05:53:55;;;;;;;38.92;7.32;;;9.10;99.90;;;;;;5057902;28;20458;-73
2022/01/03 05:56:21;;;;;;;33.53;5.70;;;9.00;99.90;;;;;;5057851;28;20032;-73
2022/01/03 05:58:47;;;;;;;36.63;5.97;;;9.00;99.90;;;;;;5057705;28;20068;-74
2022/01/03 06:01:13;;;;;;;36.78;5.72;;;9.00;99.90;;;;;;5057797;28;20052;-74
2022/01/03 06:03:40;;;;;;;37.63;6.25;;;9.00;99.90;;;;;;5057726;28;20040;-74
2022/01/03 06:06:20;;;;;;;29.70;5.32;;;9.00;99.90;;;;;;5057875;28;20048;-74
2022/01/03 06:08:46;;;;;;;29.02;5.65;;;9.10;99.90;;;;;;5040889;28;20075;-74
2022/01/03 06:11:11;;;;;;;41.13;6.50;;;9.10;99.90;;;;;;5057499;28;20095;-74
2022/01/03 06:13:37;;;;;;;35.97;6.30;;;9.10;99.90;;;;;;5040947;28;20045;-74
2022/01/03 06:16:03;;;;;;;35.40;5.45;;;9.10;99.90;;;;;;5057529;28;20045;-74
2022/01/03 06:18:28;;;;;;;37.08;5.65;;;9.10;99.90;;;;;;5040681;28;20036;-73
2022/01/03 06:20:54;;;;;;;38.60;6.88;;;9.10;99.90;;;;;;5057378;28;20040;-74
2022/01/03 06:23:20;;;;;;;33.60;5.75;;;9.10;99.90;;;;;;5057295;28;20044;-74
2022/01/03 06:25:46;;;;;;;40.42;6.40;;;9.10;99.90;;;;;;5057390;28;20037;-74
2022/01/03 06:28:12;;;;;;;39.17;5.65;;;9.10;99.90;;;;;;5057250;28;20504;-74
2022/01/03 06:30:41;;;;;;;43.80;6.75;;;9.10;99.90;;;;;;5040685;28;20068;-73
2022/01/03 06:33:08;;;;;;;37.45;5.45;;;9.10;99.90;;;;;;5057170;28;20040;-74
2022/01/03 06:35:34;;;;;;;30.20;5.40;;;9.10;99.90;;;;;;5040639;28;20089;-73
2022/01/03 06:38:03;;;;;;;39.42;5.95;;;9.00;99.90;;;;;;5057413;28;20036;-73
2022/01/03 06:40:28;;;;;;;34.08;5.57;;;9.00;99.90;;;;;;5039611;28;20086;-73
2022/01/03 06:42:54;;;;;;;32.53;5.97;;;9.00;99.90;;;;;;5057555;28;20036;-73
2022/01/03 06:45:20;;;;;;;41.03;5.97;;;9.10;99.90;;;;;;5056941;28;20040;-72
2022/01/03 06:47:47;;;;;;;30.50;5.45;;;9.10;99.90;;;;;;5057094;28;20508;-72
2022/01/03 06:50:13;;;;;;;27.83;5.43;;;9.10;99.90;;;;;;5056678;28;20053;-72
2022/01/03 06:52:38;;;;;;;34.78;5.10;;;9.10;99.90;;;;;;5056677;28;20088;-73
2022/01/03 06:55:08;;;;;;;39.03;6.63;;;9.10;99.90;;;;;;5057021;28;20037;-71
2022/01/03 06:57:34;;;;;;;35.00;5.57;;;9.10;99.90;;;;;;5056972;28;20036;-72
2022/01/03 06:59:59;;;;;;;34.85;5.55;;;9.10;99.90;;;;;;5039913;28;20082;-72
2022/01/03 07:02:25;;;;;;;28.63;5.35;;;9.10;99.90;;;;;;5040289;28;20086;-72
2022/01/03 07:04:50;;;;;;;35.30;7.22;;;9.10;99.90;;;;;;5056556;28;20412;-72
2022/01/03 07:07:16;;;;;;;35.03;5.47;;;9.10;99.90;;;;;;5056521;28;20043;-72
2022/01/03 07:09:42;;;;;;;33.55;5.43;;;9.10;99.90;;;;;;5056256;28;20044;-72
2022/01/03 07:12:08;;;;;;;31.00;5.13;;;9.10;99.90;;;;;;5056272;28;20137;-72
2022/01/03 07:19:54;;;;;;;36.53;5.82;;;9.10;99.90;;;;;;5056108;28;20237;-72
2022/01/03 07:22:19;;;;;;;;;;;9.10;99.90;;;;;;5040018;28;20107;-72
2022/01/03 07:24:46;;;;;;;30.45;5.22;;;9.10;99.90;;;;;;5056138;28;20012;-70
2022/01/03 07:27:12;;;;;;;36.25;5.10;;;9.10;99.90;;;;;;5039660;28;20040;-71
2022/01/03 07:29:39;;;;;;;27.13;4.90;;;9.10;99.90;;;;;;5055962;28;20036;-72
2022/01/03 07:32:05;;;;;;;31.88;5.63;;;9.10;99.90;;;;;;5056154;28;20072;-72
2022/01/03 07:34:30;;;;;;;29.25;5.15;;;9.10;99.90;;;;;;5039740;28;20054;-72
2022/01/03 07:36:56;;;;;;;26.42;5.22;;;9.10;99.90;;;;;;5056311;28;20563;-72
2022/01/03 07:39:22;;;;;;;35.88;5.90;;;9.20;99.90;;;;;;5056131;28;20526;-72
2022/01/03 07:41:47;;;;;;;38.45;6.32;;;9.20;99.90;;;;;;5055922;28;20412;-72
2022/01/03 07:44:14;;;;;;;42.75;6.68;;;9.20;99.90;;;;;;5055841;28;20123;-72
2022/01/03 07:46:39;;;;;;;35.53;5.82;;;9.20;99.90;;;;;;5055806;28;20047;-72
2022/01/03 07:49:05;;;;;;;37.40;5.70;;;9.20;99.90;;;;;;5055939;28;20127;-72
2022/01/03 07:51:31;;;;;;;30.85;4.82;;;9.20;99.90;;;;;;5038923;28;20500;-72
2022/01/03 07:53:57;;;;;;;35.53;5.18;;;9.20;99.90;;;;;;5038952;28;20041;-72
2022/01/03 07:56:23;;;;;;;37.38;5.40;;;9.30;99.90;;;;;;5055634;28;20047;-72
2022/01/03 07:58:48;;;;;;;37.13;5.65;;;9.30;99.90;;;;;;5038975;28;20072;-72
2022/01/03 08:01:14;;;;;;;33.97;6.03;;;9.30;99.90;;;;;;5055552;28;20036;-73
2022/01/03 08:03:40;;;;;;;36.33;5.75;;;9.30;99.90;;;;;;5055885;28;20040;-73
2022/01/03 08:06:08;;;;;;;44.20;7.30;;;9.30;99.90;;;;;;5055726;28;20036;-72
2022/01/03 08:08:34;;;;;;;35.38;5.25;;;9.30;99.90;;;;;;5055635;28;20522;-72
2022/01/03 08:11:00;;;;;;;33.67;5.85;;;9.30;99.90;;;;;;5055369;28;20040;-73
2022/01/03 08:13:26;;;;;;;35.75;5.47;;;9.30;99.90;;;;;;5055269;28;20043;-73
2022/01/03 08:15:51;;;;;;;38.72;6.38;;;9.40;99.90;;;;;;5055558;28;20037;-72
2022/01/03 08:18:17;;;;;;;33.78;5.65;;;9.40;99.90;;;;;;5055257;28;20040;-72
2022/01/03 08:20:42;;;;;;;36.45;6.00;;;9.40;99.90;;;;;;5055497;28;20090;-72
2022/01/03 08:23:08;;;;;;;31.00;5.70;;;9.40;99.90;;;;;;5055512;28;20041;-72
2022/01/03 08:25:37;;;;;;;38.47;5.90;;;9.40;99.90;;;;;;5055436;28;20097;-71
2022/01/03 08:28:07;;;;;;;32.55;4.80;;;9.50;99.90;;;;;;5055439;28;20415;-71
2022/01/03 08:30:34;;;;;;;31.92;6.22;;;9.50;99.90;;;;;;5038447;28;20047;-71
2022/01/03 08:33:01;;;;;;;38.75;5.75;;;9.40;99.90;;;;;;5055092;28;20037;-72
2022/01/03 08:35:26;;;;;;;32.67;5.07;;;9.50;99.90;;;;;;5055080;28;20036;-72
2022/01/03 08:37:52;;;;;;;36.53;5.55;;;9.50;99.90;;;;;;5038416;28;20094;-72
2022/01/03 08:40:18;;;;;;;33.85;6.03;;;9.50;99.90;;;;;;5039070;28;20033;-72
2022/01/03 08:42:43;;;;;;;37.42;6.60;;;9.60;99.90;;;;;;5055033;28;20123;-72
2022/01/03 08:45:09;;;;;;;33.78;5.43;;;9.60;99.90;;;;;;5055254;28;20151;-72
2022/01/03 08:47:35;;;;;;;37.08;5.50;;;9.50;99.90;;;;;;5055226;28;20036;-72
2022/01/03 08:50:01;;;;;;;34.80;6.53;;;9.60;99.90;;;;;;5038552;28;20514;-72
2022/01/03 08:52:27;;;;;;;37.65;5.95;;;9.60;99.90;;;;;;5054814;28;20033;-72
2022/01/03 08:54:52;;;;;;;31.15;4.97;;;9.60;99.90;;;;;;5055237;28;20043;-72
2022/01/03 08:57:19;;;;;;;32.92;5.80;;;9.60;99.90;;;;;;5054813;28;20114;-72
2022/01/03 08:59:44;;;;;;;30.08;5.32;;;9.60;99.90;;;;;;5054631;28;20040;-72
2022/01/03 09:02:10;;;;;;;34.03;5.70;;;9.70;99.90;;;;;;5054766;28;20044;-72
2022/01/03 09:04:36;;;;;;;31.95;5.78;;;9.70;99.90;;;;;;5057651;28;20036;-72
2022/01/03 09:07:02;;;;;;;31.63;5.72;;;9.70;99.90;;;;;;5058827;28;20075;-72
2022/01/03 09:09:29;;;;;;;34.40;6.07;;;9.70;99.90;;;;;;5042026;28;20044;-72
2022/01/03 09:11:55;;;;;;;25.27;5.72;;;9.70;99.90;;;;;;5042014;28;20588;-72
2022/01/03 09:14:20;;;;;;;32.47;5.07;;;9.70;99.90;;;;;;5058691;28;20064;-73
2022/01/03 09:16:46;;;;;;;26.88;5.80;;;9.70;99.90;;;;;;5058890;28;20094;-73
2022/01/03 09:19:11;;;;;;;35.35;5.28;;;9.70;99.90;;;;;;5058491;28;20082;-73
2022/01/03 09:21:37;;;;;;;32.28;5.32;;;9.70;99.90;;;;;;5058804;28;20044;-73
2022/01/03 09:29:28;;;;;;;26.52;5.30;;;9.80;99.90;;;;;;5058289;28;20066;-73
2022/01/03 09:31:54;;;;;;;28.60;4.93;;;9.80;99.90;;;;;;5041659;28;20040;-73
2022/01/03 09:34:20;;;;;;;30.05;5.75;;;9.80;99.90;;;;;;5058274;28;20032;-73
2022/01/03 09:36:45;;;;;;;30.67;5.32;;;9.80;99.90;;;;;;5058302;28;20090;-73
2022/01/03 09:39:11;;;;;;;26.83;5.03;;;9.80;99.90;;;;;;5058122;28;20032;-72
2022/01/03 09:41:43;;;;;;;25.77;5.20;;;9.80;99.90;;;;;;5058464;28;20105;-73
2022/01/03 09:44:11;;;;;;;32.50;5.13;;;9.90;99.90;;;;;;5058378;28;20134;-73
2022/01/03 09:46:42;;;;;;;33.25;5.00;;;9.80;99.90;;;;;;5058042;28;20059;-73
2022/01/03 09:49:10;;;;;;;27.45;5.22;;;9.90;99.90;;;;;;5057945;28;20048;-73
2022/01/03 09:51:37;;;;;;;27.55;4.88;;;9.90;99.90;;;;;;5057872;28;20041;-72
2022/01/03 09:54:12;;;;;;;30.13;4.75;;;9.90;99.90;;;;;;5058159;28;20516;-73
2022/01/03 09:56:40;;;;;;;26.77;5.82;;;9.90;99.90;;;;;;5059026;28;20032;-73
2022/01/03 09:59:07;;;;;;;26.23;5.35;;;9.90;99.90;;;;;;5058024;28;20044;-73
2022/01/03 10:01:33;;;;;;;32.40;5.78;;;9.90;99.90;;;;;;5057744;28;20617;-73
2022/01/03 10:04:00;;;;;;;27.33;4.63;;;9.90;99.90;;;;;;5058062;28;20068;-73
2022/01/03 10:06:26;;;;;;;33.42;4.93;;;9.90;99.90;;;;;;5041044;28;20071;-74
2022/01/03 10:08:53;;;;;;;26.23;5.03;;;10.00;99.90;;;;;;5057480;28;20137;-73
2022/01/03 10:11:23;;;;;;;32.33;5.82;;;10.00;99.90;;;;;;5057486;28;20040;-73
2022/01/03 10:13:49;;;;;;;33.97;6.13;;;10.00;99.90;;;;;;5040892;28;20068;-73
2022/01/03 10:16:15;;;;;;;28.00;4.85;;;10.00;99.90;;;;;;5056166;28;20054;-74
2022/01/03 10:18:41;;;;;;;28.60;4.72;;;10.00;99.90;;;;;;5057674;28;20044;-73
2022/01/03 10:21:07;;;;;;;24.70;4.32;;;10.10;99.90;;;;;;5057681;28;20044;-73
2022/01/03 10:23:34;;;;;;;28.05;5.63;;;10.10;99.90;;;;;;5057342;28;20053;-73
2022/01/03 10:26:20;;;;;;;32.17;5.78;;;10.10;99.90;;;;;;5040782;28;20385;-73
2022/01/03 10:28:47;;;;;;;34.03;4.97;;;10.20;99.90;;;;;;5057210;28;20389;-73
2022/01/03 10:31:18;;;;;;;24.60;5.07;;;10.20;99.90;;;;;;5057165;28;20080;-73
2022/01/03 10:33:44;;;;;;;37.45;5.85;;;10.20;99.90;;;;;;5057112;28;20040;-73
2022/01/03 10:36:29;;;;;;;33.55;5.40;;;10.20;99.90;;;;;;5057153;28;20033;-73
2022/01/03 10:38:55;;;;;;;26.58;5.82;;;10.30;99.90;;;;;;5057102;28;20094;-73
2022/01/03 10:41:23;;;;;;;34.80;5.30;;;10.20;99.90;;;;;;5040377;28;20041;-72
2022/01/03 10:44:07;;;;;;;31.33;4.75;;;10.20;99.90;;;;;;5057286;28;20123;-73
2022/01/03 10:46:35;;;;;;;32.85;4.90;;;10.20;99.90;;;;;;5040415;28;20044;-73
2022/01/03 10:49:21;;;;;;;31.00;5.05;;;10.20;99.90;;;;;;5056872;28;20087;-73
2022/01/03 10:51:47;;;;;;;25.55;4.85;;;10.20;99.90;;;;;;5056751;28;20037;-73
2022/01/03 10:54:19;;;;;;;28.80;4.90;;;10.20;99.90;;;;;;5040202;28;20086;-73
2022/01/03 10:56:50;;;;;;;27.70;5.20;;;10.20;99.90;;;;;;5056760;28;20377;-73
2022/01/03 10:59:16;;;;;;;25.45;4.95;;;10.20;99.90;;;;;;5056661;28;20036;-72
2022/01/03 11:01:43;;;;;;;33.15;4.85;;;10.30;99.90;;;;;;5056617;28;20071;-72
2022/01/03 11:04:14;;;;;;;29.27;5.07;;;10.30;99.90;;;;;;5039939;28;20093;-73
2022/01/03 11:11:55;;;;;;;34.25;4.78;;;10.40;99.90;;;;;;5056393;28;20458;-73
2022/01/03 11:14:42;;;;;;;27.95;4.93;;;10.40;99.90;;;;;;5056497;28;20089;-73
2022/01/03 11:17:28;;;;;;;30.25;5.93;;;10.40;99.90;;;;;;5040372;28;20036;-73
2022/01/03 11:19:59;;;;;;;26.73;4.70;;;10.40;99.90;;;;;;5056144;28;20033;-73
2022/01/03 11:22:40;;;;;;;31.75;5.55;;;10.40;99.90;;;;;;5039836;28;20496;-73
2022/01/03 11:25:06;;;;;;;29.55;4.63;;;10.50;99.90;;;;;;5056132;28;20416;-73
2022/01/03 11:27:38;;;;;;;27.10;4.38;;;10.50;99.90;;;;;;5039118;28;20037;-74
2022/01/03 11:30:05;;;;;;;29.67;4.78;;;10.60;99.90;;;;;;5039744;28;20036;-73
2022/01/03 11:32:32;;;;;;;27.20;5.15;;;10.80;99.90;;;;;;5056353;28;20475;-73
2022/01/03 11:35:00;;;;;;;26.55;4.90;;;11.20;99.90;;;;;;5056377;28;20044;-73
2022/01/03 11:37:32;;;;;;;26.05;4.78;;;11.60;99.90;;;;;;5056460;28;20029;-73
2022/01/03 11:39:59;;;;;;;23.75;5.18;;;11.70;99.90;;;;;;5039642;28;20131;-73
2022/01/03 11:42:25;;;;;;;28.48;4.93;;;11.60;99.90;;;;;;5055875;28;20040;-73
2022/01/03 11:44:51;;;;;;;27.02;4.70;;;11.90;99.90;;;;;;5039257;28;20037;-73
2022/01/03 11:47:18;;;;;;;33.83;5.00;;;12.00;99.90;;;;;;5055778;28;20040;-73
2022/01/03 11:49:44;;;;;;;18.33;3.88;;;11.90;99.90;;;;;;5055866;28;20181;-72
2022/01/03 11:52:14;;;;;;;28.50;4.63;;;11.70;99.90;;;;;;5055617;28;20123;-73
2022/01/03 11:54:40;;;;;;;29.13;4.90;;;11.60;99.90;;;;;;5039947;28;20040;-73
2022/01/03 11:57:17;;;;;;;24.83;4.88;;;11.70;99.90;;;;;;5055675;28;20032;-73
2022/01/03 12:05:48;;;;;;;23.23;3.97;;;12.20;98.80;;;;;;5055436;28;20041;-73
2022/01/03 12:08:25;;;;;;;27.58;4.55;;;12.20;98.70;;;;;;5055215;28;20049;-73
2022/01/03 12:10:52;;;;;;;26.52;4.50;;;12.40;98.40;;;;;;5055534;28;20451;-73
2022/01/03 12:13:19;;;;;;;24.70;4.30;;;12.50;97.90;;;;;;5038690;28;20442;-73
2022/01/03 12:15:45;;;;;;;20.65;4.30;;;12.40;97.60;;;;;;5055340;28;20036;-74
2022/01/03 12:18:28;;;;;;;26.02;4.88;;;12.60;97.20;;;;;;5055275;28;20042;-72
2022/01/03 12:20:54;;;;;;;26.63;4.70;;;12.50;96.40;;;;;;5038642;28;20040;-73
2022/01/03 12:23:35;;;;;;;32.63;5.97;;;12.30;97.20;;;;;;5055278;28;20032;-72
2022/01/03 12:26:17;;;;;;;28.48;4.57;;;12.20;96.70;;;;;;5038876;28;20048;-73
2022/01/03 12:29:06;;;;;;;24.33;4.60;;;12.00;97.90;;;;;;5038561;28;20048;-73
2022/01/03 12:32:06;;;;;;;24.20;4.53;;;11.90;97.40;;;;;;5055419;28;20090;-73
2022/01/03 12:34:32;;;;;;;27.45;5.28;;;11.80;97.70;;;;;;5055189;28;20037;-74
2022/01/03 12:37:14;;;;;;;26.65;4.53;;;11.80;98.30;;;;;;5055931;28;20036;-74
2022/01/03 12:40:02;;;;;;;26.70;4.97;;;11.90;98.10;;;;;;5054410;28;20047;-73
2022/01/03 12:42:50;;;;;;;23.08;4.85;;;11.90;98.20;;;;;;5054999;28;20037;-74
2022/01/03 12:45:40;;;;;;;26.48;5.25;;;11.80;98.10;;;;;;5055139;28;20040;-74
2022/01/03 12:48:11;;;;;;;26.92;4.70;;;11.80;98.70;;;;;;5038444;28;20063;-74
2022/01/03 12:50:52;;;;;;;27.42;4.68;;;11.90;98.50;;;;;;5038152;28;20102;-74
2022/01/03 12:53:26;;;;;;;25.08;4.78;;;11.90;98.10;;;;;;5038608;28;20063;-73
2022/01/03 12:56:08;;;;;;;32.03;5.07;;;11.80;98.10;;;;;;5038496;28;20527;-74
2022/01/03 12:58:34;;;;;;;29.65;5.07;;;11.70;98.60;;;;;;5054847;28;20570;-73
2022/01/03 13:01:12;;;;;;;26.83;4.93;;;11.60;99.00;;;;;;5054834;28;20123;-73
2022/01/03 13:03:50;;;;;;;27.67;5.15;;;11.50;99.00;;;;;;5038370;28;20044;-74
2022/01/03 13:06:16;;;;;;;29.13;5.28;;;11.40;99.50;;;;;;5055028;28;20151;-74
2022/01/03 13:08:48;;;;;;;26.75;5.18;;;11.30;99.90;;;;;;5055176;28;20049;-73
2022/01/03 13:11:24;;;;;;;26.58;4.82;;;11.20;99.90;;;;;;5038026;28;20500;-74
2022/01/03 13:13:52;;;;;;;27.02;5.60;;;11.20;99.90;;;;;;5054663;28;20437;-74
2022/01/03 13:16:21;;;;;;;26.15;4.93;;;11.10;99.90;;;;;;5054632;28;20037;-74